sensor_id;sensor_type;location;lat;lon;timestamp;P1;durP1;ratioP1;P2;durP2;ratioP2
25497;SDS011;13406;53.380;7.226;2023-07-08T00:01:11;6.50;;;3.90;;
25497;SDS011;13406;53.380;7.226;2023-07-08T00:03:38;6.30;;;4.20;;
25497;SDS011;13406;53.380;7.226;2023-07-08T00:06:04;6.23;;;4.00;;
25497;SDS011;13406;53.380;7.226;2023-07-08T00:08:36;5.37;;;3.70;;
25497;SDS011;13406;53.380;7.226;2023-07-08T00:11:04;4.13;;;3.60;;
25497;SDS011;13406;53.380;7.226;2023-07-08T00:13:34;4.40;;;3.37;;
25497;SDS011;13406;53.380;7.226;2023-07-08T00:16:00;6.00;;;3.97;;
25497;SDS011;13406;53.380;7.226;2023-07-08T00:18:25;7.03;;;4.17;;
25497;SDS011;13406;53.380;7.226;2023-07-08T00:20:51;6.43;;;3.70;;
25497;SDS011;13406;53.380;7.226;2023-07-08T00:23:16;5.60;;;3.90;;
25497;SDS011;13406;53.380;7.226;2023-07-08T00:25:46;6.33;;;3.50;;
25497;SDS011;13406;53.380;7.226;2023-07-08T00:28:13;4.87;;;3.23;;
25497;SDS011;13406;53.380;7.226;2023-07-08T00:30:41;4.07;;;3.40;;
25497;SDS011;13406;53.380;7.226;2023-07-08T00:33:07;5.00;;;3.80;;
25497;SDS011;13406;53.380;7.226;2023-07-08T00:35:42;5.70;;;3.90;;
25497;SDS011;13406;53.380;7.226;2023-07-08T00:38:15;5.77;;;3.70;;
25497;SDS011;13406;53.380;7.226;2023-07-08T00:40:49;5.40;;;4.07;;
25497;SDS011;13406;53.380;7.226;2023-07-08T00:43:18;4.27;;;3.53;;
25497;SDS011;13406;53.380;7.226;2023-07-08T00:45:50;7.40;;;4.40;;
25497;SDS011;13406;53.380;7.226;2023-07-08T00:48:24;5.70;;;4.00;;
25497;SDS011;13406;53.380;7.226;2023-07-08T00:50:53;7.20;;;3.90;;
25497;SDS011;13406;53.380;7.226;2023-07-08T00:56:37;6.43;;;4.00;;
25497;SDS011;13406;53.380;7.226;2023-07-08T00:58:58;6.00;;;4.50;;
25497;SDS011;13406;53.380;7.226;2023-07-08T01:01:27;4.93;;;3.70;;
25497;SDS011;13406;53.380;7.226;2023-07-08T01:03:58;5.80;;;4.30;;
25497;SDS011;13406;53.380;7.226;2023-07-08T01:06:30;8.30;;;4.20;;
25497;SDS011;13406;53.380;7.226;2023-07-08T01:08:59;5.90;;;4.10;;
25497;SDS011;13406;53.380;7.226;2023-07-08T01:11:28;6.57;;;4.10;;
25497;SDS011;13406;53.380;7.226;2023-07-08T01:13:54;5.73;;;4.00;;
25497;SDS011;13406;53.380;7.226;2023-07-08T01:16:22;10.63;;;4.53;;
25497;SDS011;13406;53.380;7.226;2023-07-08T01:18:47;5.60;;;3.63;;
25497;SDS011;13406;53.380;7.226;2023-07-08T01:24:05;4.80;;;3.37;;
25497;SDS011;13406;53.380;7.226;2023-07-08T01:26:33;6.87;;;3.80;;
25497;SDS011;13406;53.380;7.226;2023-07-08T01:29:00;6.47;;;4.40;;
25497;SDS011;13406;53.380;7.226;2023-07-08T01:31:28;5.70;;;3.70;;
25497;SDS011;13406;53.380;7.226;2023-07-08T01:33:54;8.60;;;3.90;;
25497;SDS011;13406;53.380;7.226;2023-07-08T01:36:19;4.30;;;3.40;;
25497;SDS011;13406;53.380;7.226;2023-07-08T01:38:45;4.77;;;4.00;;
25497;SDS011;13406;53.380;7.226;2023-07-08T01:41:12;8.50;;;3.73;;
25497;SDS011;13406;53.380;7.226;2023-07-08T01:43:38;6.63;;;3.67;;
25497;SDS011;13406;53.380;7.226;2023-07-08T01:46:04;6.80;;;3.53;;
25497;SDS011;13406;53.380;7.226;2023-07-08T01:48:41;4.33;;;3.30;;
25497;SDS011;13406;53.380;7.226;2023-07-08T01:51:11;7.93;;;4.20;;
25497;SDS011;13406;53.380;7.226;2023-07-08T01:53:38;6.37;;;4.00;;
25497;SDS011;13406;53.380;7.226;2023-07-08T01:56:06;7.53;;;4.47;;
25497;SDS011;13406;53.380;7.226;2023-07-08T01:58:32;8.20;;;4.13;;
25497;SDS011;13406;53.380;7.226;2023-07-08T02:00:58;7.13;;;4.50;;
25497;SDS011;13406;53.380;7.226;2023-07-08T02:03:24;7.43;;;4.33;;
25497;SDS011;13406;53.380;7.226;2023-07-08T02:05:51;7.67;;;4.27;;
25497;SDS011;13406;53.380;7.226;2023-07-08T02:08:16;5.30;;;3.83;;
25497;SDS011;13406;53.380;7.226;2023-07-08T02:10:42;6.17;;;4.20;;
25497;SDS011;13406;53.380;7.226;2023-07-08T02:13:09;7.07;;;4.10;;
25497;SDS011;13406;53.380;7.226;2023-07-08T02:15:34;6.80;;;4.27;;
25497;SDS011;13406;53.380;7.226;2023-07-08T02:18:00;5.47;;;3.97;;
25497;SDS011;13406;53.380;7.226;2023-07-08T02:20:25;6.90;;;4.37;;
25497;SDS011;13406;53.380;7.226;2023-07-08T02:22:51;5.30;;;4.63;;
25497;SDS011;13406;53.380;7.226;2023-07-08T02:25:17;7.77;;;5.07;;
25497;SDS011;13406;53.380;7.226;2023-07-08T02:27:42;7.53;;;4.10;;
25497;SDS011;13406;53.380;7.226;2023-07-08T02:30:08;4.90;;;4.10;;
25497;SDS011;13406;53.380;7.226;2023-07-08T02:32:34;7.20;;;4.27;;
25497;SDS011;13406;53.380;7.226;2023-07-08T02:35:04;6.60;;;4.53;;
25497;SDS011;13406;53.380;7.226;2023-07-08T02:37:30;7.00;;;4.57;;
25497;SDS011;13406;53.380;7.226;2023-07-08T02:39:55;6.90;;;4.90;;
25497;SDS011;13406;53.380;7.226;2023-07-08T02:42:21;7.13;;;4.30;;
25497;SDS011;13406;53.380;7.226;2023-07-08T02:44:46;6.90;;;5.17;;
25497;SDS011;13406;53.380;7.226;2023-07-08T02:47:12;9.33;;;4.97;;
25497;SDS011;13406;53.380;7.226;2023-07-08T02:49:37;4.90;;;4.40;;
25497;SDS011;13406;53.380;7.226;2023-07-08T02:52:03;6.13;;;4.47;;
25497;SDS011;13406;53.380;7.226;2023-07-08T02:54:29;6.80;;;4.97;;
25497;SDS011;13406;53.380;7.226;2023-07-08T02:56:54;5.97;;;4.67;;
25497;SDS011;13406;53.380;7.226;2023-07-08T02:59:19;5.10;;;4.57;;
25497;SDS011;13406;53.380;7.226;2023-07-08T03:01:45;6.83;;;5.40;;
25497;SDS011;13406;53.380;7.226;2023-07-08T03:04:11;8.17;;;5.03;;
25497;SDS011;13406;53.380;7.226;2023-07-08T03:06:41;6.00;;;4.60;;
25497;SDS011;13406;53.380;7.226;2023-07-08T03:09:10;7.63;;;5.03;;
25497;SDS011;13406;53.380;7.226;2023-07-08T03:11:38;6.60;;;4.90;;
25497;SDS011;13406;53.380;7.226;2023-07-08T03:14:04;9.93;;;4.97;;
25497;SDS011;13406;53.380;7.226;2023-07-08T03:16:31;6.63;;;4.50;;
25497;SDS011;13406;53.380;7.226;2023-07-08T03:18:56;8.30;;;4.73;;
25497;SDS011;13406;53.380;7.226;2023-07-08T03:21:22;8.67;;;5.70;;
25497;SDS011;13406;53.380;7.226;2023-07-08T03:23:48;7.27;;;5.30;;
25497;SDS011;13406;53.380;7.226;2023-07-08T03:26:15;7.00;;;5.17;;
25497;SDS011;13406;53.380;7.226;2023-07-08T03:28:43;7.23;;;5.50;;
25497;SDS011;13406;53.380;7.226;2023-07-08T03:31:09;9.50;;;4.87;;
25497;SDS011;13406;53.380;7.226;2023-07-08T03:33:34;6.83;;;5.30;;
25497;SDS011;13406;53.380;7.226;2023-07-08T03:36:01;8.30;;;5.30;;
25497;SDS011;13406;53.380;7.226;2023-07-08T03:38:27;8.73;;;5.90;;
25497;SDS011;13406;53.380;7.226;2023-07-08T03:40:52;7.67;;;5.70;;
25497;SDS011;13406;53.380;7.226;2023-07-08T03:43:17;6.13;;;5.53;;
25497;SDS011;13406;53.380;7.226;2023-07-08T03:45:43;9.30;;;5.47;;
25497;SDS011;13406;53.380;7.226;2023-07-08T03:48:12;8.20;;;5.40;;
25497;SDS011;13406;53.380;7.226;2023-07-08T03:50:38;7.57;;;5.20;;
25497;SDS011;13406;53.380;7.226;2023-07-08T03:53:04;7.97;;;5.13;;
25497;SDS011;13406;53.380;7.226;2023-07-08T03:55:30;7.43;;;5.33;;
25497;SDS011;13406;53.380;7.226;2023-07-08T03:57:55;7.40;;;6.03;;
25497;SDS011;13406;53.380;7.226;2023-07-08T04:00:21;9.43;;;6.20;;
25497;SDS011;13406;53.380;7.226;2023-07-08T04:02:47;10.50;;;6.17;;
25497;SDS011;13406;53.380;7.226;2023-07-08T04:05:13;9.00;;;5.30;;
25497;SDS011;13406;53.380;7.226;2023-07-08T04:07:40;6.70;;;5.50;;
25497;SDS011;13406;53.380;7.226;2023-07-08T04:10:06;9.30;;;6.30;;
25497;SDS011;13406;53.380;7.226;2023-07-08T04:12:32;9.20;;;5.83;;
25497;SDS011;13406;53.380;7.226;2023-07-08T04:14:58;6.90;;;5.67;;
25497;SDS011;13406;53.380;7.226;2023-07-08T04:17:23;7.20;;;5.87;;
25497;SDS011;13406;53.380;7.226;2023-07-08T04:19:49;8.73;;;6.80;;
25497;SDS011;13406;53.380;7.226;2023-07-08T04:22:15;8.60;;;5.40;;
25497;SDS011;13406;53.380;7.226;2023-07-08T04:24:41;9.43;;;5.77;;
25497;SDS011;13406;53.380;7.226;2023-07-08T04:27:08;8.03;;;5.83;;
25497;SDS011;13406;53.380;7.226;2023-07-08T04:29:41;10.97;;;6.40;;
25497;SDS011;13406;53.380;7.226;2023-07-08T04:32:07;9.33;;;5.50;;
25497;SDS011;13406;53.380;7.226;2023-07-08T04:34:33;6.57;;;5.87;;
25497;SDS011;13406;53.380;7.226;2023-07-08T04:36:58;7.70;;;5.80;;
25497;SDS011;13406;53.380;7.226;2023-07-08T04:39:24;6.13;;;5.13;;
25497;SDS011;13406;53.380;7.226;2023-07-08T04:41:49;6.70;;;5.07;;
25497;SDS011;13406;53.380;7.226;2023-07-08T04:44:14;9.90;;;5.50;;
25497;SDS011;13406;53.380;7.226;2023-07-08T04:46:47;8.10;;;5.63;;
25497;SDS011;13406;53.380;7.226;2023-07-08T04:49:16;8.30;;;5.67;;
25497;SDS011;13406;53.380;7.226;2023-07-08T04:51:42;6.77;;;4.70;;
25497;SDS011;13406;53.380;7.226;2023-07-08T04:54:08;7.00;;;5.10;;
25497;SDS011;13406;53.380;7.226;2023-07-08T04:56:45;5.90;;;5.00;;
25497;SDS011;13406;53.380;7.226;2023-07-08T04:59:14;9.30;;;4.80;;
25497;SDS011;13406;53.380;7.226;2023-07-08T05:01:41;6.13;;;4.50;;
25497;SDS011;13406;53.380;7.226;2023-07-08T05:04:07;7.77;;;4.90;;
25497;SDS011;13406;53.380;7.226;2023-07-08T05:06:35;8.10;;;5.03;;
25497;SDS011;13406;53.380;7.226;2023-07-08T05:09:00;8.40;;;4.90;;
25497;SDS011;13406;53.380;7.226;2023-07-08T05:11:27;7.17;;;4.83;;
25497;SDS011;13406;53.380;7.226;2023-07-08T05:13:53;9.27;;;5.23;;
25497;SDS011;13406;53.380;7.226;2023-07-08T05:16:19;7.03;;;4.73;;
25497;SDS011;13406;53.380;7.226;2023-07-08T05:18:44;7.23;;;4.83;;
25497;SDS011;13406;53.380;7.226;2023-07-08T05:21:11;8.10;;;4.93;;
25497;SDS011;13406;53.380;7.226;2023-07-08T05:23:36;9.63;;;4.67;;
25497;SDS011;13406;53.380;7.226;2023-07-08T05:26:03;6.43;;;4.60;;
25497;SDS011;13406;53.380;7.226;2023-07-08T05:28:30;4.90;;;3.87;;
25497;SDS011;13406;53.380;7.226;2023-07-08T05:30:56;5.03;;;3.87;;
25497;SDS011;13406;53.380;7.226;2023-07-08T05:33:22;5.43;;;3.90;;
25497;SDS011;13406;53.380;7.226;2023-07-08T05:35:53;7.43;;;4.17;;
25497;SDS011;13406;53.380;7.226;2023-07-08T05:38:19;7.17;;;4.00;;
25497;SDS011;13406;53.380;7.226;2023-07-08T05:40:48;5.43;;;3.90;;
25497;SDS011;13406;53.380;7.226;2023-07-08T05:43:16;5.87;;;4.43;;
25497;SDS011;13406;53.380;7.226;2023-07-08T05:45:42;6.17;;;4.80;;
25497;SDS011;13406;53.380;7.226;2023-07-08T05:48:07;6.10;;;4.00;;
25497;SDS011;13406;53.380;7.226;2023-07-08T05:50:33;8.03;;;4.40;;
25497;SDS011;13406;53.380;7.226;2023-07-08T05:52:58;5.30;;;3.73;;
25497;SDS011;13406;53.380;7.226;2023-07-08T05:55:24;9.37;;;4.60;;
25497;SDS011;13406;53.380;7.226;2023-07-08T05:57:49;5.97;;;3.53;;
25497;SDS011;13406;53.380;7.226;2023-07-08T06:00:14;5.20;;;3.83;;
25497;SDS011;13406;53.380;7.226;2023-07-08T06:02:40;5.57;;;3.57;;
25497;SDS011;13406;53.380;7.226;2023-07-08T06:05:05;7.67;;;4.20;;
25497;SDS011;13406;53.380;7.226;2023-07-08T06:07:31;6.20;;;3.57;;
25497;SDS011;13406;53.380;7.226;2023-07-08T06:09:57;4.57;;;4.07;;
25497;SDS011;13406;53.380;7.226;2023-07-08T06:12:23;6.40;;;3.40;;
25497;SDS011;13406;53.380;7.226;2023-07-08T06:14:49;7.13;;;4.03;;
25497;SDS011;13406;53.380;7.226;2023-07-08T06:17:15;4.03;;;3.43;;
25497;SDS011;13406;53.380;7.226;2023-07-08T06:19:41;5.03;;;3.47;;
25497;SDS011;13406;53.380;7.226;2023-07-08T06:22:06;5.17;;;3.70;;
25497;SDS011;13406;53.380;7.226;2023-07-08T06:24:32;5.40;;;3.33;;
25497;SDS011;13406;53.380;7.226;2023-07-08T06:26:57;4.60;;;3.67;;
25497;SDS011;13406;53.380;7.226;2023-07-08T06:29:23;8.10;;;3.90;;
25497;SDS011;13406;53.380;7.226;2023-07-08T06:31:49;4.93;;;3.30;;
25497;SDS011;13406;53.380;7.226;2023-07-08T06:34:15;3.87;;;3.30;;
25497;SDS011;13406;53.380;7.226;2023-07-08T06:36:40;6.87;;;3.27;;
25497;SDS011;13406;53.380;7.226;2023-07-08T06:39:06;5.47;;;3.50;;
25497;SDS011;13406;53.380;7.226;2023-07-08T06:41:33;4.77;;;3.37;;
25497;SDS011;13406;53.380;7.226;2023-07-08T06:43:59;5.40;;;3.30;;
25497;SDS011;13406;53.380;7.226;2023-07-08T06:46:25;3.97;;;3.20;;
25497;SDS011;13406;53.380;7.226;2023-07-08T06:48:50;5.30;;;3.60;;
25497;SDS011;13406;53.380;7.226;2023-07-08T06:51:16;7.77;;;3.43;;
25497;SDS011;13406;53.380;7.226;2023-07-08T06:53:41;9.47;;;4.10;;
25497;SDS011;13406;53.380;7.226;2023-07-08T06:56:06;5.00;;;3.23;;
25497;SDS011;13406;53.380;7.226;2023-07-08T06:58:33;4.67;;;2.80;;
25497;SDS011;13406;53.380;7.226;2023-07-08T07:00:59;6.07;;;2.80;;
25497;SDS011;13406;53.380;7.226;2023-07-08T07:03:24;4.00;;;2.70;;
25497;SDS011;13406;53.380;7.226;2023-07-08T07:05:50;5.80;;;3.10;;
25497;SDS011;13406;53.380;7.226;2023-07-08T07:08:15;3.40;;;2.63;;
25497;SDS011;13406;53.380;7.226;2023-07-08T07:10:41;4.90;;;3.37;;
25497;SDS011;13406;53.380;7.226;2023-07-08T07:13:07;4.30;;;3.10;;
25497;SDS011;13406;53.380;7.226;2023-07-08T07:15:32;4.67;;;3.27;;
25497;SDS011;13406;53.380;7.226;2023-07-08T07:17:58;6.13;;;3.20;;
25497;SDS011;13406;53.380;7.226;2023-07-08T07:20:23;3.27;;;2.57;;
25497;SDS011;13406;53.380;7.226;2023-07-08T07:22:51;7.50;;;3.33;;
25497;SDS011;13406;53.380;7.226;2023-07-08T07:25:17;6.07;;;3.13;;
25497;SDS011;13406;53.380;7.226;2023-07-08T07:27:42;3.30;;;2.77;;
25497;SDS011;13406;53.380;7.226;2023-07-08T07:30:08;3.60;;;2.87;;
25497;SDS011;13406;53.380;7.226;2023-07-08T07:32:37;5.20;;;3.00;;
25497;SDS011;13406;53.380;7.226;2023-07-08T07:35:03;4.23;;;2.73;;
25497;SDS011;13406;53.380;7.226;2023-07-08T07:37:30;5.50;;;2.67;;
25497;SDS011;13406;53.380;7.226;2023-07-08T07:39:55;4.10;;;2.97;;
25497;SDS011;13406;53.380;7.226;2023-07-08T07:42:20;5.20;;;2.90;;
25497;SDS011;13406;53.380;7.226;2023-07-08T07:44:46;3.13;;;2.40;;
25497;SDS011;13406;53.380;7.226;2023-07-08T07:47:11;4.70;;;3.07;;
25497;SDS011;13406;53.380;7.226;2023-07-08T07:49:44;5.10;;;3.20;;
25497;SDS011;13406;53.380;7.226;2023-07-08T07:52:09;5.67;;;3.10;;
25497;SDS011;13406;53.380;7.226;2023-07-08T07:54:38;6.13;;;3.10;;
25497;SDS011;13406;53.380;7.226;2023-07-08T07:57:04;3.67;;;2.50;;
25497;SDS011;13406;53.380;7.226;2023-07-08T07:59:30;3.83;;;2.50;;
25497;SDS011;13406;53.380;7.226;2023-07-08T08:01:55;5.00;;;2.90;;
25497;SDS011;13406;53.380;7.226;2023-07-08T08:04:21;3.40;;;2.90;;
25497;SDS011;13406;53.380;7.226;2023-07-08T08:06:46;5.97;;;2.30;;
25497;SDS011;13406;53.380;7.226;2023-07-08T08:09:12;3.73;;;2.77;;
25497;SDS011;13406;53.380;7.226;2023-07-08T08:11:38;4.33;;;2.70;;
25497;SDS011;13406;53.380;7.226;2023-07-08T08:14:03;4.50;;;2.43;;
25497;SDS011;13406;53.380;7.226;2023-07-08T08:16:29;3.03;;;2.73;;
25497;SDS011;13406;53.380;7.226;2023-07-08T08:18:55;2.33;;;2.13;;
25497;SDS011;13406;53.380;7.226;2023-07-08T08:21:20;5.30;;;2.60;;
25497;SDS011;13406;53.380;7.226;2023-07-08T08:23:46;3.80;;;2.70;;
25497;SDS011;13406;53.380;7.226;2023-07-08T08:26:12;5.90;;;2.73;;
25497;SDS011;13406;53.380;7.226;2023-07-08T08:28:37;5.30;;;3.90;;
25497;SDS011;13406;53.380;7.226;2023-07-08T08:31:04;4.93;;;2.70;;
25497;SDS011;13406;53.380;7.226;2023-07-08T08:33:29;3.47;;;2.37;;
25497;SDS011;13406;53.380;7.226;2023-07-08T08:35:54;4.33;;;2.23;;
25497;SDS011;13406;53.380;7.226;2023-07-08T08:38:20;3.10;;;2.53;;
25497;SDS011;13406;53.380;7.226;2023-07-08T08:40:45;3.20;;;2.30;;
25497;SDS011;13406;53.380;7.226;2023-07-08T08:43:16;3.00;;;2.53;;
25497;SDS011;13406;53.380;7.226;2023-07-08T08:45:50;4.90;;;2.67;;
25497;SDS011;13406;53.380;7.226;2023-07-08T08:48:21;3.43;;;2.57;;
25497;SDS011;13406;53.380;7.226;2023-07-08T08:50:53;3.90;;;2.77;;
25497;SDS011;13406;53.380;7.226;2023-07-08T08:53:25;4.93;;;2.70;;
25497;SDS011;13406;53.380;7.226;2023-07-08T08:55:55;4.40;;;2.27;;
25497;SDS011;13406;53.380;7.226;2023-07-08T09:01:09;5.63;;;2.63;;
25497;SDS011;13406;53.380;7.226;2023-07-08T09:03:39;4.47;;;2.70;;
25497;SDS011;13406;53.380;7.226;2023-07-08T09:06:09;3.23;;;2.43;;
25497;SDS011;13406;53.380;7.226;2023-07-08T09:08:41;3.27;;;2.40;;
25497;SDS011;13406;53.380;7.226;2023-07-08T09:11:10;4.53;;;2.77;;
25497;SDS011;13406;53.380;7.226;2023-07-08T09:13:44;4.43;;;2.90;;
25497;SDS011;13406;53.380;7.226;2023-07-08T09:19:14;4.23;;;3.13;;
25497;SDS011;13406;53.380;7.226;2023-07-08T09:25:01;6.07;;;2.70;;
25497;SDS011;13406;53.380;7.226;2023-07-08T09:27:34;7.13;;;2.10;;
25497;SDS011;13406;53.380;7.226;2023-07-08T09:29:59;3.13;;;2.43;;
25497;SDS011;13406;53.380;7.226;2023-07-08T09:32:26;5.97;;;3.10;;
25497;SDS011;13406;53.380;7.226;2023-07-08T09:34:57;3.50;;;2.50;;
25497;SDS011;13406;53.380;7.226;2023-07-08T09:37:30;5.90;;;2.77;;
25497;SDS011;13406;53.380;7.226;2023-07-08T09:39:58;3.80;;;2.90;;
25497;SDS011;13406;53.380;7.226;2023-07-08T09:42:27;4.07;;;2.20;;
25497;SDS011;13406;53.380;7.226;2023-07-08T09:44:59;3.07;;;2.77;;
25497;SDS011;13406;53.380;7.226;2023-07-08T09:47:36;3.87;;;2.63;;
25497;SDS011;13406;53.380;7.226;2023-07-08T09:50:15;6.73;;;2.43;;
25497;SDS011;13406;53.380;7.226;2023-07-08T09:52:43;3.00;;;2.67;;
25497;SDS011;13406;53.380;7.226;2023-07-08T09:55:11;3.77;;;2.60;;
25497;SDS011;13406;53.380;7.226;2023-07-08T09:57:37;3.30;;;2.33;;
25497;SDS011;13406;53.380;7.226;2023-07-08T10:00:08;3.20;;;2.20;;
25497;SDS011;13406;53.380;7.226;2023-07-08T10:02:46;4.73;;;3.07;;
25497;SDS011;13406;53.380;7.226;2023-07-08T10:07:51;3.37;;;2.40;;
25497;SDS011;13406;53.380;7.226;2023-07-08T10:10:19;4.63;;;2.57;;
25497;SDS011;13406;53.380;7.226;2023-07-08T10:12:58;3.83;;;2.53;;
25497;SDS011;13406;53.380;7.226;2023-07-08T10:15:48;2.63;;;2.10;;
25497;SDS011;13406;53.380;7.226;2023-07-08T10:18:17;5.37;;;2.30;;
25497;SDS011;13406;53.380;7.226;2023-07-08T10:20:59;4.20;;;2.40;;
25497;SDS011;13406;53.380;7.226;2023-07-08T10:26:25;4.80;;;2.40;;
25497;SDS011;13406;53.380;7.226;2023-07-08T10:32:03;4.30;;;2.30;;
25497;SDS011;13406;53.380;7.226;2023-07-08T10:37:33;2.67;;;2.37;;
25497;SDS011;13406;53.380;7.226;2023-07-08T10:40:15;4.37;;;2.20;;
25497;SDS011;13406;53.380;7.226;2023-07-08T10:50:52;5.33;;;2.30;;
25497;SDS011;13406;53.380;7.226;2023-07-08T10:53:37;4.00;;;2.73;;
25497;SDS011;13406;53.380;7.226;2023-07-08T10:59:06;3.03;;;2.60;;
25497;SDS011;13406;53.380;7.226;2023-07-08T11:04:32;3.37;;;2.67;;
25497;SDS011;13406;53.380;7.226;2023-07-08T11:09:49;3.23;;;2.17;;
25497;SDS011;13406;53.380;7.226;2023-07-08T11:12:29;3.53;;;2.50;;
25497;SDS011;13406;53.380;7.226;2023-07-08T11:15:22;3.30;;;2.50;;
25497;SDS011;13406;53.380;7.226;2023-07-08T11:17:57;2.80;;;2.13;;
25497;SDS011;13406;53.380;7.226;2023-07-08T11:20:36;5.33;;;3.07;;
25497;SDS011;13406;53.380;7.226;2023-07-08T11:27:15;4.30;;;2.70;;
25497;SDS011;13406;53.380;7.226;2023-07-08T11:29:37;6.20;;;2.60;;
25497;SDS011;13406;53.380;7.226;2023-07-08T11:32:08;3.23;;;2.53;;
25497;SDS011;13406;53.380;7.226;2023-07-08T11:34:39;4.53;;;2.60;;
25497;SDS011;13406;53.380;7.226;2023-07-08T11:37:07;5.13;;;2.90;;
25497;SDS011;13406;53.380;7.226;2023-07-08T11:39:46;3.27;;;2.87;;
25497;SDS011;13406;53.380;7.226;2023-07-08T11:44:44;3.80;;;2.73;;
25497;SDS011;13406;53.380;7.226;2023-07-08T11:47:18;5.00;;;2.33;;
25497;SDS011;13406;53.380;7.226;2023-07-08T11:49:46;2.80;;;2.43;;
25497;SDS011;13406;53.380;7.226;2023-07-08T11:52:16;3.40;;;2.53;;
25497;SDS011;13406;53.380;7.226;2023-07-08T11:54:47;2.90;;;2.60;;
25497;SDS011;13406;53.380;7.226;2023-07-08T11:57:30;4.70;;;2.90;;
25497;SDS011;13406;53.380;7.226;2023-07-08T12:00:45;3.40;;;2.60;;
25497;SDS011;13406;53.380;7.226;2023-07-08T12:02:53;9.53;;;3.03;;
25497;SDS011;13406;53.380;7.226;2023-07-08T12:05:33;5.90;;;2.93;;
25497;SDS011;13406;53.380;7.226;2023-07-08T12:08:00;4.57;;;2.60;;
25497;SDS011;13406;53.380;7.226;2023-07-08T12:13:03;5.33;;;2.63;;
25497;SDS011;13406;53.380;7.226;2023-07-08T12:15:36;2.77;;;2.40;;
25497;SDS011;13406;53.380;7.226;2023-07-08T12:18:09;3.40;;;2.53;;
25497;SDS011;13406;53.380;7.226;2023-07-08T12:20:39;4.07;;;2.60;;
25497;SDS011;13406;53.380;7.226;2023-07-08T12:23:17;4.80;;;2.93;;
25497;SDS011;13406;53.380;7.226;2023-07-08T12:25:44;5.83;;;2.70;;
25497;SDS011;13406;53.380;7.226;2023-07-08T12:28:10;3.30;;;2.57;;
25497;SDS011;13406;53.380;7.226;2023-07-08T12:30:39;3.00;;;2.57;;
25497;SDS011;13406;53.380;7.226;2023-07-08T12:33:11;5.33;;;2.80;;
25497;SDS011;13406;53.380;7.226;2023-07-08T12:35:43;4.10;;;2.90;;
25497;SDS011;13406;53.380;7.226;2023-07-08T12:38:31;3.37;;;2.90;;
25497;SDS011;13406;53.380;7.226;2023-07-08T12:41:17;3.20;;;2.90;;
25497;SDS011;13406;53.380;7.226;2023-07-08T12:43:45;4.83;;;3.23;;
25497;SDS011;13406;53.380;7.226;2023-07-08T12:46:12;5.33;;;3.10;;
25497;SDS011;13406;53.380;7.226;2023-07-08T12:48:40;5.20;;;3.63;;
25497;SDS011;13406;53.380;7.226;2023-07-08T12:51:12;6.03;;;3.37;;
25497;SDS011;13406;53.380;7.226;2023-07-08T12:53:39;7.73;;;3.23;;
25497;SDS011;13406;53.380;7.226;2023-07-08T12:56:05;6.07;;;3.47;;
25497;SDS011;13406;53.380;7.226;2023-07-08T12:58:33;5.03;;;3.57;;
25497;SDS011;13406;53.380;7.226;2023-07-08T13:01:02;5.90;;;3.30;;
25497;SDS011;13406;53.380;7.226;2023-07-08T13:03:31;5.07;;;2.87;;
25497;SDS011;13406;53.380;7.226;2023-07-08T13:06:01;3.73;;;3.23;;
25497;SDS011;13406;53.380;7.226;2023-07-08T13:08:29;5.30;;;3.63;;
25497;SDS011;13406;53.380;7.226;2023-07-08T13:11:01;5.57;;;3.40;;
25497;SDS011;13406;53.380;7.226;2023-07-08T13:13:40;4.00;;;3.60;;
25497;SDS011;13406;53.380;7.226;2023-07-08T13:16:14;5.27;;;3.80;;
25497;SDS011;13406;53.380;7.226;2023-07-08T13:18:40;3.77;;;3.00;;
25497;SDS011;13406;53.380;7.226;2023-07-08T13:21:08;5.77;;;3.30;;
25497;SDS011;13406;53.380;7.226;2023-07-08T13:23:37;4.33;;;3.13;;
25497;SDS011;13406;53.380;7.226;2023-07-08T13:26:17;7.30;;;2.90;;
25497;SDS011;13406;53.380;7.226;2023-07-08T13:28:44;4.70;;;3.10;;
25497;SDS011;13406;53.380;7.226;2023-07-08T13:31:15;3.90;;;3.17;;
25497;SDS011;13406;53.380;7.226;2023-07-08T13:33:48;4.63;;;4.13;;
25497;SDS011;13406;53.380;7.226;2023-07-08T13:36:29;7.70;;;3.90;;
25497;SDS011;13406;53.380;7.226;2023-07-08T13:39:00;7.90;;;3.80;;
25497;SDS011;13406;53.380;7.226;2023-07-08T13:41:30;4.30;;;3.30;;
25497;SDS011;13406;53.380;7.226;2023-07-08T13:43:55;4.33;;;3.53;;
25497;SDS011;13406;53.380;7.226;2023-07-08T13:52:08;5.67;;;3.00;;
25497;SDS011;13406;53.380;7.226;2023-07-08T13:54:46;8.83;;;3.67;;
25497;SDS011;13406;53.380;7.226;2023-07-08T13:57:15;3.47;;;3.17;;
25497;SDS011;13406;53.380;7.226;2023-07-08T13:59:42;3.83;;;3.53;;
25497;SDS011;13406;53.380;7.226;2023-07-08T14:02:15;5.40;;;3.00;;
25497;SDS011;13406;53.380;7.226;2023-07-08T14:04:46;5.50;;;3.40;;
25497;SDS011;13406;53.380;7.226;2023-07-08T14:07:15;3.57;;;3.27;;
25497;SDS011;13406;53.380;7.226;2023-07-08T14:09:43;3.50;;;3.00;;
25497;SDS011;13406;53.380;7.226;2023-07-08T14:12:09;8.87;;;3.40;;
25497;SDS011;13406;53.380;7.226;2023-07-08T14:14:34;4.90;;;3.00;;
25497;SDS011;13406;53.380;7.226;2023-07-08T14:16:59;4.80;;;3.00;;
25497;SDS011;13406;53.380;7.226;2023-07-08T14:19:30;4.47;;;3.37;;
25497;SDS011;13406;53.380;7.226;2023-07-08T14:22:00;4.13;;;3.60;;
25497;SDS011;13406;53.380;7.226;2023-07-08T14:24:27;5.47;;;3.20;;
25497;SDS011;13406;53.380;7.226;2023-07-08T14:26:52;4.43;;;3.50;;
25497;SDS011;13406;53.380;7.226;2023-07-08T14:29:18;4.40;;;3.60;;
25497;SDS011;13406;53.380;7.226;2023-07-08T14:31:44;7.45;;;4.30;;
25497;SDS011;13406;53.380;7.226;2023-07-08T14:34:13;6.90;;;3.97;;
25497;SDS011;13406;53.380;7.226;2023-07-08T14:36:49;4.87;;;3.77;;
25497;SDS011;13406;53.380;7.226;2023-07-08T14:39:15;4.37;;;3.70;;
25497;SDS011;13406;53.380;7.226;2023-07-08T14:41:42;5.10;;;3.90;;
25497;SDS011;13406;53.380;7.226;2023-07-08T14:44:31;5.30;;;3.90;;
25497;SDS011;13406;53.380;7.226;2023-07-08T14:47:01;8.60;;;4.20;;
25497;SDS011;13406;53.380;7.226;2023-07-08T14:49:27;4.57;;;3.60;;
25497;SDS011;13406;53.380;7.226;2023-07-08T14:51:53;4.40;;;3.80;;
25497;SDS011;13406;53.380;7.226;2023-07-08T14:54:18;4.00;;;3.47;;
25497;SDS011;13406;53.380;7.226;2023-07-08T14:56:45;8.20;;;3.23;;
25497;SDS011;13406;53.380;7.226;2023-07-08T14:59:15;5.90;;;3.80;;
25497;SDS011;13406;53.380;7.226;2023-07-08T15:01:43;5.73;;;3.47;;
25497;SDS011;13406;53.380;7.226;2023-07-08T15:04:12;5.50;;;4.37;;
25497;SDS011;13406;53.380;7.226;2023-07-08T15:06:40;5.80;;;4.07;;
25497;SDS011;13406;53.380;7.226;2023-07-08T15:09:07;4.73;;;4.23;;
25497;SDS011;13406;53.380;7.226;2023-07-08T15:11:33;4.30;;;3.90;;
25497;SDS011;13406;53.380;7.226;2023-07-08T15:14:00;6.57;;;4.30;;
25497;SDS011;13406;53.380;7.226;2023-07-08T15:16:26;4.60;;;4.10;;
25497;SDS011;13406;53.380;7.226;2023-07-08T15:18:52;5.30;;;4.80;;
25497;SDS011;13406;53.380;7.226;2023-07-08T15:21:17;4.10;;;3.70;;
25497;SDS011;13406;53.380;7.226;2023-07-08T15:23:43;5.63;;;3.60;;
25497;SDS011;13406;53.380;7.226;2023-07-08T15:26:12;4.60;;;4.20;;
25497;SDS011;13406;53.380;7.226;2023-07-08T15:31:08;4.47;;;4.07;;
25497;SDS011;13406;53.380;7.226;2023-07-08T15:33:38;6.93;;;4.57;;
25497;SDS011;13406;53.380;7.226;2023-07-08T15:36:03;4.20;;;3.67;;
25497;SDS011;13406;53.380;7.226;2023-07-08T15:38:28;4.30;;;3.80;;
25497;SDS011;13406;53.380;7.226;2023-07-08T15:40:54;6.27;;;4.27;;
25497;SDS011;13406;53.380;7.226;2023-07-08T15:43:19;5.63;;;4.27;;
25497;SDS011;13406;53.380;7.226;2023-07-08T15:45:45;5.30;;;4.30;;
25497;SDS011;13406;53.380;7.226;2023-07-08T15:48:14;4.50;;;4.10;;
25497;SDS011;13406;53.380;7.226;2023-07-08T15:50:40;6.40;;;4.70;;
25497;SDS011;13406;53.380;7.226;2023-07-08T15:53:06;7.47;;;4.77;;
25497;SDS011;13406;53.380;7.226;2023-07-08T15:55:34;4.23;;;3.83;;